Waynesville, North Carolina
Current Conditions -  °F | °C
As of 5:54 AM on Thursday 23 Oct 2014 (Local Time) from KAVL Reporting Station
Clear Clear  
Wind Chill: 37°   Ceiling: Unl
Heat Index: 43°   Visibility: 10mi
Dew Point: 35°   Wind: 10mph
Humidity: 74%   Direction: 330°NNW
Pressure: 30.13"   Gusts: 20mph
Location:  35.48°N, 83.01°W
Report Text: KAVL 230954Z AUTO 33009G17KT 10SM CLR 06/02 A3013 RMK AO2 SLP198 T00610017
Loading
Personal Weather Stations






























Interactive Weather Map New forecast layout! Learn more

10-Day Weather Forecast

Advertisements
Track Severe Weather on mobile